Time;durP1;ratioP1;P1;durP2;ratioP2;P2;SDS_P1;SDS_P2;PMS_P1;PMS_P2;Temp;Humidity;BMP_temperature;BMP_pressure;BME280_temperature;BME280_humidity;BME280_pressure;Samples;Min_cycle;Max_cycle;Signal;HPM_P1;HPM_P2
2023/01/24 00:01:45;;;;;;;;;;;;;;;;;;5030895;28;1433;-44
2023/01/24 00:04:12;;;;;;;;;;;;;;;;;;5030950;28;1823;-42
2023/01/24 00:06:39;;;;;;;;;;;;;;;;;;5030475;28;1976;-45
2023/01/24 00:09:06;;;;;;;;;;;;;;;;;;5012792;28;1816;-40
2023/01/24 00:11:33;;;;;;;;;;;;;;;;;;5030362;28;1888;-42
2023/01/24 00:14:00;;;;;;;;;;;;;;;;;;5030677;28;1858;-43
2023/01/24 00:16:27;;;;;;;;;;;;;;;;;;5030526;28;1778;-43
2023/01/24 00:18:55;;;;;;;;;;;;;;;;;;5030664;28;2003;-44
2023/01/24 00:21:23;;;;;;;;;;;;;;;;;;5034096;28;1715;-44
2023/01/24 00:23:52;;;;;;;;;;;;;;;;;;5034055;28;1945;-44
2023/01/24 00:26:21;;;;;;;;;;;;;;;;;;5034499;28;2070;-42
2023/01/24 00:28:49;;;;;;;;;;;;;;;;;;5053903;28;1476;-42
2023/01/24 00:31:16;;;;;;;;;;;;;;;;;;5053909;28;1525;-47
2023/01/24 00:33:43;;;;;;;;;;;;;;;;;;5053851;28;1796;-43
2023/01/24 00:36:11;;;;;;;;;;;;;;;;;;5053763;28;1935;-43
2023/01/24 00:38:38;;;;;;;;;;;;;;;;;;5053594;28;1950;-43
2023/01/24 00:41:05;;;;;;;;;;;;;;;;;;5053642;28;1688;-42
2023/01/24 00:43:32;;;;;;;;;;;;;;;;;;5035472;28;2072;-44
2023/01/24 00:46:01;;;;;;;;;;;;;;;;;;5036038;28;2211;-45
2023/01/24 00:48:28;;;;;;;;;;;;;;;;;;5053326;28;1727;-42
2023/01/24 00:50:58;;;;;;;;;;;;;;;;;;5035475;28;1860;-42
2023/01/24 00:53:28;;;;;;;;;;;;;;;;;;5035537;28;1398;-40
2023/01/24 00:55:55;;;;;;;;;;;;;;;;;;5053147;28;2075;-43
2023/01/24 00:58:23;;;;;;;;;;;;;;;;;;5053268;28;1822;-42
2023/01/24 01:00:50;;;;;;;;;;;;;;;;;;5035266;28;1882;-42
2023/01/24 01:03:18;;;;;;;;;;;;;;;;;;5053385;28;1968;-45
2023/01/24 01:05:46;;;;;;;;;;;;;;;;;;5053201;28;1951;-43
2023/01/24 01:08:13;;;;;;;;;;;;;;;;;;5052988;28;1974;-43
2023/01/24 01:10:41;;;;;;;;;;;;;;;;;;5035241;28;1962;-41
2023/01/24 01:13:11;;;;;;;;;;;;;;;;;;5051518;28;1541;-42
2023/01/24 01:15:38;;;;;;;;;;;;;;;;;;5035319;28;2082;-42
2023/01/24 01:18:06;;;;;;;;;;;;;;;;;;5034925;28;1798;-44
2023/01/24 01:20:33;;;;;;;;;;;;;;;;;;5052632;28;1820;-43
2023/01/24 01:23:00;;;;;;;;;;;;;;;;;;5051590;28;2143;-41
2023/01/24 01:25:29;;;;;;;;;;;;;;;;;;5052682;28;2286;-42
2023/01/24 01:27:56;;;;;;;;;;;;;;;;;;5052753;28;1624;-42
2023/01/24 01:30:23;;;;;;;;;;;;;;;;;;5052156;28;2101;-45
2023/01/24 01:32:50;;;;;;;;;;;;;;;;;;5052467;28;2024;-42
2023/01/24 01:35:20;;;;;;;;;;;;;;;;;;5052899;28;1400;-42
2023/01/24 01:37:48;;;;;;;;;;;;;;;;;;5051441;28;1612;-46
2023/01/24 01:40:16;;;;;;;;;;;;;;;;;;5052802;28;1796;-40
2023/01/24 01:42:51;;;;;;;;;;;;;;;;;;5051214;28;1756;-46
2023/01/24 01:45:33;;;;;;;;;;;;;;;;;;5052671;28;2030;-42
2023/01/24 01:48:04;;;;;;;;;;;;;;;;;;5052302;28;1805;-44
2023/01/24 01:50:35;;;;;;;;;;;;;;;;;;5052446;28;1332;-42
2023/01/24 01:53:03;;;;;;;;;;;;;;;;;;5050964;28;2103;-42
2023/01/24 01:55:35;;;;;;;;;;;;;;;;;;5052266;28;1991;-43
2023/01/24 01:58:03;;;;;;;;;;;;;;;;;;5050759;28;2085;-45
2023/01/24 02:00:30;;;;;;;;;;;;;;;;;;5052267;28;2085;-41
2023/01/24 02:03:37;;;;;;;;;;;;;;;;;;5052137;28;1539;-44
2023/01/24 02:05:50;;;;;;;;;;;;;;;;;;5051003;28;1895;-44
2023/01/24 02:08:20;;;;;;;;;;;;;;;;;;5051792;28;2272;-43
2023/01/24 02:13:35;;;;;;;;;;;;;;;;;;5051940;28;1668;-45
2023/01/24 02:16:02;;;;;;;;;;;;;;;;;;5051980;28;1305;-43
2023/01/24 02:18:38;;;;;;;;;;;;;;;;;;5051696;28;2005;-41
2023/01/24 02:21:10;;;;;;;;;;;;;;;;;;5051893;28;2180;-48
2023/01/24 02:23:55;;;;;;;;;;;;;;;;;;5051749;28;1952;-44
2023/01/24 02:26:23;;;;;;;;;;;;;;;;;;5050502;28;1906;-43
2023/01/24 02:28:55;;;;;;;;;;;;;;;;;;5033941;28;2282;-41
2023/01/24 02:31:23;;;;;;;;;;;;;;;;;;5051856;28;2002;-43
2023/01/24 02:33:50;;;;;;;;;;;;;;;;;;5051552;28;1865;-44
2023/01/24 02:36:30;;;;;;;;;;;;;;;;;;5051689;28;1569;-42
2023/01/24 02:39:01;;;;;;;;;;;;;;;;;;5033542;28;1691;-42
2023/01/24 02:41:33;;;;;;;;;;;;;;;;;;5033587;28;1808;-44
2023/01/24 02:44:04;;;;;;;;;;;;;;;;;;5033455;28;2048;-43
2023/01/24 02:46:35;;;;;;;;;;;;;;;;;;5051235;28;2152;-42
2023/01/24 02:49:02;;;;;;;;;;;;;;;;;;5051288;28;1942;-45
2023/01/24 02:54:15;;;;;;;;;;;;;;;;;;5051322;28;1276;-41
2023/01/24 02:59:29;;;;;;;;;;;;;;;;;;5033176;28;1986;-43
2023/01/24 03:01:56;;;;;;;;;;;;;;;;;;5033320;28;2177;-42
2023/01/24 03:04:23;;;;;;;;;;;;;;;;;;5051207;28;1704;-43
2023/01/24 03:06:51;;;;;;;;;;;;;;;;;;5050939;28;2160;-40
2023/01/24 03:09:19;;;;;;;;;;;;;;;;;;5033232;28;2057;-42
2023/01/24 03:11:50;;;;;;;;;;;;;;;;;;5033063;28;2170;-45
2023/01/24 03:36:31;;;;;;;;;;;;;;;;;;5031056;28;1514;-40
2023/01/24 03:41:47;;;;;;;;;;;;;;;;;;5030448;28;2125;-40
2023/01/24 03:44:15;;;;;;;;;;;;;;;;;;5029564;28;1448;-43
2023/01/24 03:46:43;;;;;;;;;;;;;;;;;;5029432;28;1993;-44
2023/01/24 03:49:12;;;;;;;;;;;;;;;;;;5029601;28;2117;-42
2023/01/24 03:54:25;;;;;;;;;;;;;;;;;;5031884;28;1384;-40
2023/01/24 03:57:05;;;;;;;;;;;;;;;;;;5033193;28;1831;-39
2023/01/24 03:59:32;;;;;;;;;;;;;;;;;;5033184;28;1701;-40
2023/01/24 04:01:59;;;;;;;;;;;;;;;;;;5034653;28;2151;-39
2023/01/24 04:05:12;;;;;;;;;;;;;;;;;;5033200;28;1821;-40
2023/01/24 04:07:18;;;;;;;;;;;;;;;;;;5032983;28;1973;-40
2023/01/24 04:09:58;;;;;;;;;;;;;;;;;;5034554;28;1715;-40
2023/01/24 04:12:28;;;;;;;;;;;;;;;;;;5033205;28;1805;-43
2023/01/24 04:14:55;;;;;;;;;;;;;;;;;;5032958;28;1395;-41
2023/01/24 04:17:25;;;;;;;;;;;;;;;;;;5034082;28;1835;-40
2023/01/24 04:19:53;;;;;;;;;;;;;;;;;;5032989;28;1962;-39
2023/01/24 04:22:21;;;;;;;;;;;;;;;;;;5032746;28;1960;-39
2023/01/24 04:24:48;;;;;;;;;;;;;;;;;;5034156;28;1768;-44
2023/01/24 04:27:16;;;;;;;;;;;;;;;;;;5040253;28;2041;-40
2023/01/24 04:29:57;;;;;;;;;;;;;;;;;;5052558;28;1674;-40
2023/01/24 04:32:25;;;;;;;;;;;;;;;;;;5052475;28;1674;-40
2023/01/24 04:35:03;;;;;;;;;;;;;;;;;;5052608;28;1898;-41
2023/01/24 04:37:49;;;;;;;;;;;;;;;;;;5053824;28;2259;-39
2023/01/24 04:40:30;;;;;;;;;;;;;;;;;;5052514;28;1482;-40
2023/01/24 04:42:57;;;;;;;;;;;;;;;;;;5052182;28;1696;-42
2023/01/24 04:45:25;;;;;;;;;;;;;;;;;;5052312;28;2325;-40
2023/01/24 04:47:55;;;;;;;;;;;;;;;;;;5052461;28;1910;-40
2023/01/24 04:50:23;;;;;;;;;;;;;;;;;;5052292;28;1844;-40
2023/01/24 04:52:51;;;;;;;;;;;;;;;;;;5052064;28;1749;-42
2023/01/24 04:55:18;;;;;;;;;;;;;;;;;;5053472;28;1277;-40
2023/01/24 04:57:45;;;;;;;;;;;;;;;;;;5053299;28;1678;-40
2023/01/24 05:00:13;;;;;;;;;;;;;;;;;;5051981;28;2040;-40
2023/01/24 05:02:40;;;;;;;;;;;;;;;;;;5051898;28;1579;-40
2023/01/24 05:05:08;;;;;;;;;;;;;;;;;;5035471;28;1680;-39
2023/01/24 05:07:36;;;;;;;;;;;;;;;;;;5051757;28;2200;-40
2023/01/24 05:10:09;;;;;;;;;;;;;;;;;;5053207;28;1769;-40
2023/01/24 05:12:37;;;;;;;;;;;;;;;;;;5051825;28;2423;-39
2023/01/24 05:15:10;;;;;;;;;;;;;;;;;;5037345;28;1816;-40
2023/01/24 05:17:37;;;;;;;;;;;;;;;;;;5031743;28;1942;-40
2023/01/24 05:20:04;;;;;;;;;;;;;;;;;;5031935;28;1719;-43
2023/01/24 05:22:32;;;;;;;;;;;;;;;;;;5031777;28;1789;-39
2023/01/24 05:24:59;;;;;;;;;;;;;;;;;;5031753;28;1861;-39
2023/01/24 05:27:26;;;;;;;;;;;;;;;;;;5031404;28;2178;-39
2023/01/24 05:29:58;;;;;;;;;;;;;;;;;;5015152;28;1794;-41
2023/01/24 05:32:26;;;;;;;;;;;;;;;;;;5014765;28;1887;-40
2023/01/24 05:34:53;;;;;;;;;;;;;;;;;;5014911;28;1593;-40
2023/01/24 05:37:22;;;;;;;;;;;;;;;;;;5014988;28;1422;-39
2023/01/24 05:39:49;;;;;;;;;;;;;;;;;;5014834;28;2349;-39
2023/01/24 05:42:16;;;;;;;;;;;;;;;;;;5014974;28;2756;-41
2023/01/24 05:44:47;;;;;;;;;;;;;;;;;;5014582;28;1669;-39
2023/01/24 05:47:15;;;;;;;;;;;;;;;;;;5032560;28;1916;-39
2023/01/24 05:49:44;;;;;;;;;;;;;;;;;;5014834;28;1493;-41
2023/01/24 05:52:12;;;;;;;;;;;;;;;;;;5032387;28;1781;-41
2023/01/24 05:54:48;;;;;;;;;;;;;;;;;;5014758;28;1407;-41
2023/01/24 05:57:28;;;;;;;;;;;;;;;;;;5014547;28;1727;-41
2023/01/24 06:00:18;;;;;;;;;;;;;;;;;;5024070;28;1818;-40
2023/01/24 06:03:08;;;;;;;;;;;;;;;;;;5026499;28;2105;-39
2023/01/24 06:05:36;;;;;;;;;;;;;;;;;;5014434;28;1862;-39
2023/01/24 06:08:04;;;;;;;;;;;;;;;;;;5014387;28;1912;-40
2023/01/24 06:10:32;;;;;;;;;;;;;;;;;;5014197;28;2327;-40
2023/01/24 06:13:08;;;;;;;;;;;;;;;;;;5014440;28;2203;-39
2023/01/24 06:15:35;;;;;;;;;;;;;;;;;;5032195;28;1824;-40
2023/01/24 06:18:03;;;;;;;;;;;;;;;;;;5013700;28;2103;-40
2023/01/24 06:20:31;;;;;;;;;;;;;;;;;;5014039;28;2019;-40
2023/01/24 06:23:09;;;;;;;;;;;;;;;;;;5031814;28;1848;-41
2023/01/24 06:25:42;;;;;;;;;;;;;;;;;;5014048;28;1632;-42
2023/01/24 06:28:09;;;;;;;;;;;;;;;;;;5047520;28;1906;-40
2023/01/24 06:30:39;;;;;;;;;;;;;;;;;;5050864;28;2053;-39
2023/01/24 06:33:18;;;;;;;;;;;;;;;;;;5051525;28;2169;-42
2023/01/24 06:36:08;;;;;;;;;;;;;;;;;;5051510;28;1626;-41
2023/01/24 06:38:35;;;;;;;;;;;;;;;;;;5039400;28;1693;-42
2023/01/24 06:41:03;;;;;;;;;;;;;;;;;;5051371;28;1755;-40
2023/01/24 06:43:30;;;;;;;;;;;;;;;;;;5051269;28;1977;-40
2023/01/24 06:45:57;;;;;;;;;;;;;;;;;;5051360;28;1640;-39
2023/01/24 06:48:24;;;;;;;;;;;;;;;;;;5033263;28;1904;-40
2023/01/24 06:50:51;;;;;;;;;;;;;;;;;;5051067;28;1952;-40
2023/01/24 06:53:18;;;;;;;;;;;;;;;;;;5051194;28;2175;-39
2023/01/24 06:55:46;;;;;;;;;;;;;;;;;;5051035;28;2092;-39
2023/01/24 06:58:13;;;;;;;;;;;;;;;;;;5051257;28;1386;-39
2023/01/24 07:00:40;;;;;;;;;;;;;;;;;;5051239;28;2013;-39
2023/01/24 07:03:08;;;;;;;;;;;;;;;;;;5051374;28;1830;-40
2023/01/24 07:05:35;;;;;;;;;;;;;;;;;;5050961;28;2100;-39
2023/01/24 07:08:03;;;;;;;;;;;;;;;;;;5050731;28;1894;-40
2023/01/24 07:10:30;;;;;;;;;;;;;;;;;;5050959;28;2117;-39
2023/01/24 07:12:58;;;;;;;;;;;;;;;;;;5051272;28;1944;-39
2023/01/24 07:15:28;;;;;;;;;;;;;;;;;;5050891;28;2129;-39
2023/01/24 07:17:55;;;;;;;;;;;;;;;;;;5050070;28;1959;-40
2023/01/24 07:20:22;;;;;;;;;;;;;;;;;;5050932;28;1787;-44
2023/01/24 07:22:50;;;;;;;;;;;;;;;;;;5050643;28;2250;-40
2023/01/24 07:25:18;;;;;;;;;;;;;;;;;;5050946;28;1571;-39
2023/01/24 07:27:47;;;;;;;;;;;;;;;;;;5050755;28;2255;-39
2023/01/24 07:30:15;;;;;;;;;;;;;;;;;;5053135;28;1971;-42
2023/01/24 07:32:42;;;;;;;;;;;;;;;;;;5054943;28;1569;-40
2023/01/24 07:35:09;;;;;;;;;;;;;;;;;;5054946;28;1805;-39
2023/01/24 07:37:37;;;;;;;;;;;;;;;;;;5055100;28;1956;-40
2023/01/24 07:40:04;;;;;;;;;;;;;;;;;;5054857;28;1751;-41
2023/01/24 07:42:31;;;;;;;;;;;;;;;;;;5054774;28;1990;-43
2023/01/24 07:44:59;;;;;;;;;;;;;;;;;;5054609;28;1903;-39
2023/01/24 07:47:26;;;;;;;;;;;;;;;;;;5054512;28;1902;-39
2023/01/24 07:49:53;;;;;;;;;;;;;;;;;;5036345;28;2323;-39
2023/01/24 07:52:20;;;;;;;;;;;;;;;;;;5054549;28;1743;-38
2023/01/24 07:54:47;;;;;;;;;;;;;;;;;;5054500;28;2080;-39
2023/01/24 07:57:16;;;;;;;;;;;;;;;;;;5054638;28;2184;-40
2023/01/24 07:59:43;;;;;;;;;;;;;;;;;;5054510;28;2367;-42
2023/01/24 08:02:11;;;;;;;;;;;;;;;;;;5054427;28;2040;-40
2023/01/24 08:04:41;;;;;;;;;;;;;;;;;;5054303;28;1374;-40
2023/01/24 08:07:17;;;;;;;;;;;;;;;;;;5054120;28;1914;-40
2023/01/24 08:09:45;;;;;;;;;;;;;;;;;;5054424;28;1567;-40
2023/01/24 08:12:12;;;;;;;;;;;;;;;;;;5054399;28;2073;-40
2023/01/24 08:14:40;;;;;;;;;;;;;;;;;;5054056;28;1612;-38
2023/01/24 08:17:07;;;;;;;;;;;;;;;;;;5053908;28;1753;-39
2023/01/24 08:19:35;;;;;;;;;;;;;;;;;;5054338;28;1443;-40
2023/01/24 08:22:23;;;;;;;;;;;;;;;;;;5053719;28;2030;-41
2023/01/24 08:24:50;;;;;;;;;;;;;;;;;;5054074;28;1819;-39
2023/01/24 08:27:17;;;;;;;;;;;;;;;;;;5045175;28;1991;-40
2023/01/24 08:29:44;;;;;;;;;;;;;;;;;;5033929;28;1927;-40
2023/01/24 08:32:11;;;;;;;;;;;;;;;;;;5033452;28;1803;-40
2023/01/24 08:34:41;;;;;;;;;;;;;;;;;;5014795;28;2038;-40
2023/01/24 08:37:08;;;;;;;;;;;;;;;;;;5032519;28;1470;-40
2023/01/24 08:39:35;;;;;;;;;;;;;;;;;;5032332;28;2082;-40
2023/01/24 08:42:02;;;;;;;;;;;;;;;;;;5032324;28;2447;-39
2023/01/24 08:44:29;;;;;;;;;;;;;;;;;;5032309;28;1803;-40
2023/01/24 08:46:57;;;;;;;;;;;;;;;;;;5032480;28;1890;-40
2023/01/24 08:49:24;;;;;;;;;;;;;;;;;;5032347;28;2021;-39
2023/01/24 08:51:58;;;;;;;;;;;;;;;;;;5032286;28;2007;-45
2023/01/24 08:54:26;;;;;;;;;;;;;;;;;;5032220;28;2136;-38
2023/01/24 08:56:54;;;;;;;;;;;;;;;;;;5032327;28;1794;-40
2023/01/24 08:59:21;;;;;;;;;;;;;;;;;;5032231;28;1690;-39
2023/01/24 09:01:48;;;;;;;;;;;;;;;;;;5032387;28;1743;-42
2023/01/24 09:04:16;;;;;;;;;;;;;;;;;;5014531;28;1593;-41
2023/01/24 09:06:43;;;;;;;;;;;;;;;;;;5032184;28;1499;-43
2023/01/24 09:09:10;;;;;;;;;;;;;;;;;;5031849;28;1914;-39
2023/01/24 09:11:38;;;;;;;;;;;;;;;;;;5032045;28;1557;-40
2023/01/24 09:14:05;;;;;;;;;;;;;;;;;;5031924;28;1981;-39
2023/01/24 09:16:32;;;;;;;;;;;;;;;;;;5014307;28;1960;-40
2023/01/24 09:18:59;;;;;;;;;;;;;;;;;;5032002;28;1830;-40
2023/01/24 09:21:26;;;;;;;;;;;;;;;;;;5031755;28;1819;-40
2023/01/24 09:23:54;;;;;;;;;;;;;;;;;;5031913;28;1798;-38
2023/01/24 09:26:22;;;;;;;;;;;;;;;;;;5032765;28;1773;-41
2023/01/24 09:28:49;;;;;;;;;;;;;;;;;;5051974;28;1995;-40
2023/01/24 09:31:16;;;;;;;;;;;;;;;;;;5051874;28;1633;-39
2023/01/24 09:33:44;;;;;;;;;;;;;;;;;;5052080;28;1886;-39
2023/01/24 09:36:24;;;;;;;;;;;;;;;;;;5052582;28;1273;-40
2023/01/24 09:38:52;;;;;;;;;;;;;;;;;;5052760;28;1804;-39
2023/01/24 09:41:49;;;;;;;;;;;;;;;;;;5052453;28;1703;-40
2023/01/24 09:44:44;;;;;;;;;;;;;;;;;;5052383;28;1473;-40
2023/01/24 09:47:25;;;;;;;;;;;;;;;;;;5052256;28;1770;-38
2023/01/24 09:50:01;;;;;;;;;;;;;;;;;;5052353;28;2219;-39
2023/01/24 09:52:34;;;;;;;;;;;;;;;;;;5051500;28;1910;-40
2023/01/24 09:55:28;;;;;;;;;;;;;;;;;;5052006;28;1967;-39
2023/01/24 09:58:01;;;;;;;;;;;;;;;;;;5049824;28;1443;-40
2023/01/24 10:00:29;;;;;;;;;;;;;;;;;;5052018;28;2522;-39
2023/01/24 10:02:58;;;;;;;;;;;;;;;;;;5052129;28;1947;-41
2023/01/24 10:05:31;;;;;;;;;;;;;;;;;;5052041;28;1904;-41
2023/01/24 10:08:17;;;;;;;;;;;;;;;;;;5052003;28;1997;-40
2023/01/24 10:10:53;;;;;;;;;;;;;;;;;;5052057;28;1842;-40
2023/01/24 10:13:20;;;;;;;;;;;;;;;;;;5052128;28;1612;-40
2023/01/24 10:16:06;;;;;;;;;;;;;;;;;;5051707;28;1708;-41
2023/01/24 10:18:34;;;;;;;;;;;;;;;;;;5051789;28;1521;-40
2023/01/24 10:21:07;;;;;;;;;;;;;;;;;;5051505;28;1989;-39
2023/01/24 10:23:37;;;;;;;;;;;;;;;;;;5051805;28;2085;-40
2023/01/24 10:26:07;;;;;;;;;;;;;;;;;;5051571;28;2224;-40
2023/01/24 10:28:38;;;;;;;;;;;;;;;;;;5051498;28;1988;-40
2023/01/24 10:31:05;;;;;;;;;;;;;;;;;;5051622;28;2289;-40
2023/01/24 10:33:53;;;;;;;;;;;;;;;;;;5051430;28;1943;-40
2023/01/24 10:36:30;;;;;;;;;;;;;;;;;;5051407;28;1584;-42
2023/01/24 10:38:57;;;;;;;;;;;;;;;;;;5051540;28;1749;-39
2023/01/24 10:41:25;;;;;;;;;;;;;;;;;;5051715;28;2059;-40
2023/01/24 10:43:54;;;;;;;;;;;;;;;;;;5051795;28;1815;-40
2023/01/24 10:46:24;;;;;;;;;;;;;;;;;;5051655;28;1569;-43
2023/01/24 10:48:53;;;;;;;;;;;;;;;;;;5051483;28;1910;-40
2023/01/24 10:51:22;;;;;;;;;;;;;;;;;;5051315;28;1846;-40
2023/01/24 10:53:49;;;;;;;;;;;;;;;;;;5051281;28;2119;-39
2023/01/24 10:56:19;;;;;;;;;;;;;;;;;;5051365;28;2033;-40
2023/01/24 10:58:56;;;;;;;;;;;;;;;;;;5051185;28;1960;-39
2023/01/24 11:01:31;;;;;;;;;;;;;;;;;;5051422;28;1840;-39
2023/01/24 11:03:59;;;;;;;;;;;;;;;;;;5051092;28;2123;-40
2023/01/24 11:06:29;;;;;;;;;;;;;;;;;;5051319;28;1832;-39
2023/01/24 11:09:24;;;;;;;;;;;;;;;;;;5051145;28;1910;-39
2023/01/24 11:11:52;;;;;;;;;;;;;;;;;;5049224;28;1642;-40
2023/01/24 11:14:24;;;;;;;;;;;;;;;;;;5050987;28;1876;-40
2023/01/24 11:16:53;;;;;;;;;;;;;;;;;;5050899;28;1379;-40
2023/01/24 11:19:31;;;;;;;;;;;;;;;;;;5051010;28;1832;-41
2023/01/24 11:22:02;;;;;;;;;;;;;;;;;;5051158;28;1958;-39
2023/01/24 11:24:29;;;;;;;;;;;;;;;;;;5050631;28;1742;-40
2023/01/24 11:27:26;;;;;;;;;;;;;;;;;;5051158;28;2001;-40
2023/01/24 11:30:12;;;;;;;;;;;;;;;;;;5034672;28;1959;-40
2023/01/24 11:32:48;;;;;;;;;;;;;;;;;;5050501;28;1998;-43
2023/01/24 11:35:24;;;;;;;;;;;;;;;;;;5050693;28;1582;-40
2023/01/24 11:38:10;;;;;;;;;;;;;;;;;;5050305;28;2123;-40
2023/01/24 11:40:39;;;;;;;;;;;;;;;;;;5050586;28;1881;-40
2023/01/24 11:43:06;;;;;;;;;;;;;;;;;;5050668;28;2012;-39
2023/01/24 11:45:46;;;;;;;;;;;;;;;;;;5050763;28;1383;-40
2023/01/24 11:48:19;;;;;;;;;;;;;;;;;;5050672;28;1906;-40
2023/01/24 11:50:55;;;;;;;;;;;;;;;;;;5050593;28;1971;-40
2023/01/24 11:53:43;;;;;;;;;;;;;;;;;;5050417;28;2088;-40
2023/01/24 11:56:18;;;;;;;;;;;;;;;;;;5050474;28;1598;-40
2023/01/24 11:59:03;;;;;;;;;;;;;;;;;;5050621;28;1889;-40
2023/01/24 12:01:42;;;;;;;;;;;;;;;;;;5050671;28;1494;-39
2023/01/24 12:04:29;;;;;;;;;;;;;;;;;;5050316;28;1955;-40
2023/01/24 12:07:16;;;;;;;;;;;;;;;;;;5050652;28;1701;-39
2023/01/24 12:09:47;;;;;;;;;;;;;;;;;;5050349;28;1898;-40
2023/01/24 12:12:20;;;;;;;;;;;;;;;;;;5050399;28;2011;-43
2023/01/24 12:15:02;;;;;;;;;;;;;;;;;;5050580;28;1996;-41
2023/01/24 12:17:35;;;;;;;;;;;;;;;;;;5054119;28;1830;-39
2023/01/24 12:20:21;;;;;;;;;;;;;;;;;;5054044;28;2288;-40
2023/01/24 12:23:01;;;;;;;;;;;;;;;;;;5054012;28;1745;-40
2023/01/24 12:25:32;;;;;;;;;;;;;;;;;;5036703;28;1900;-40
2023/01/24 12:28:05;;;;;;;;;;;;;;;;;;5039617;28;1704;-44
2023/01/24 12:30:40;;;;;;;;;;;;;;;;;;5034182;28;2061;-39
2023/01/24 12:33:14;;;;;;;;;;;;;;;;;;5033483;28;1818;-40
2023/01/24 12:35:47;;;;;;;;;;;;;;;;;;5033998;28;1536;-39
2023/01/24 12:38:22;;;;;;;;;;;;;;;;;;5033730;28;1802;-40
2023/01/24 12:41:08;;;;;;;;;;;;;;;;;;5033438;28;2105;-39
2023/01/24 12:43:46;;;;;;;;;;;;;;;;;;5033417;28;2080;-39
2023/01/24 12:46:17;;;;;;;;;;;;;;;;;;5033750;28;1612;-40
2023/01/24 12:48:50;;;;;;;;;;;;;;;;;;5033658;28;2008;-40
2023/01/24 12:51:23;;;;;;;;;;;;;;;;;;5033590;28;1327;-39
2023/01/24 12:54:09;;;;;;;;;;;;;;;;;;5033384;28;2215;-40
2023/01/24 12:56:39;;;;;;;;;;;;;;;;;;5033391;28;1755;-39
2023/01/24 12:59:08;;;;;;;;;;;;;;;;;;5033463;28;2231;-41
2023/01/24 13:01:36;;;;;;;;;;;;;;;;;;5033455;28;1215;-40
2023/01/24 13:04:22;;;;;;;;;;;;;;;;;;5033497;28;1981;-39
2023/01/24 13:06:56;;;;;;;;;;;;;;;;;;5033294;28;1996;-40
2023/01/24 13:09:28;;;;;;;;;;;;;;;;;;5033151;28;2019;-39
2023/01/24 13:11:57;;;;;;;;;;;;;;;;;;5032939;28;1976;-40
2023/01/24 13:14:30;;;;;;;;;;;;;;;;;;5032899;28;1827;-40
2023/01/24 13:17:10;;;;;;;;;;;;;;;;;;5032921;28;1480;-40
2023/01/24 13:19:48;;;;;;;;;;;;;;;;;;5032891;28;1856;-40
2023/01/24 13:22:34;;;;;;;;;;;;;;;;;;5032597;28;1257;-40
2023/01/24 13:25:21;;;;;;;;;;;;;;;;;;5032896;28;1458;-39
2023/01/24 13:27:54;;;;;;;;;;;;;;;;;;5044593;28;2235;-40
2023/01/24 13:30:43;;;;;;;;;;;;;;;;;;5052784;28;1910;-40
2023/01/24 13:33:15;;;;;;;;;;;;;;;;;;5052559;28;2268;-41
2023/01/24 13:35:47;;;;;;;;;;;;;;;;;;5052497;28;1926;-39
2023/01/24 13:38:25;;;;;;;;;;;;;;;;;;5052822;28;1935;-40
2023/01/24 13:41:03;;;;;;;;;;;;;;;;;;5052601;28;1928;-39
2023/01/24 13:43:37;;;;;;;;;;;;;;;;;;5052475;28;1446;-40
2023/01/24 13:46:05;;;;;;;;;;;;;;;;;;5052717;28;1482;-39
2023/01/24 13:48:41;;;;;;;;;;;;;;;;;;5052451;28;1962;-40
2023/01/24 13:51:19;;;;;;;;;;;;;;;;;;5052461;28;1515;-40
2023/01/24 13:53:57;;;;;;;;;;;;;;;;;;5052127;28;2207;-39
2023/01/24 13:56:24;;;;;;;;;;;;;;;;;;5051133;28;1750;-42
2023/01/24 13:58:53;;;;;;;;;;;;;;;;;;5052149;28;2110;-43
2023/01/24 14:01:21;;;;;;;;;;;;;;;;;;5052387;28;1859;-43
2023/01/24 14:03:56;;;;;;;;;;;;;;;;;;5052071;28;1605;-45
2023/01/24 14:06:24;;;;;;;;;;;;;;;;;;5052315;28;1683;-43
2023/01/24 14:09:17;;;;;;;;;;;;;;;;;;5051866;28;1967;-43
2023/01/24 14:12:04;;;;;;;;;;;;;;;;;;5049659;28;1772;-42
2023/01/24 14:14:32;;;;;;;;;;;;;;;;;;5051898;28;2302;-43
2023/01/24 14:17:01;;;;;;;;;;;;;;;;;;5051689;28;1527;-41
2023/01/24 14:19:30;;;;;;;;;;;;;;;;;;5051768;28;2248;-42
2023/01/24 14:21:58;;;;;;;;;;;;;;;;;;5051588;28;1650;-45
2023/01/24 14:24:36;;;;;;;;;;;;;;;;;;5051716;28;2002;-42
2023/01/24 14:27:16;;;;;;;;;;;;;;;;;;5051446;28;1851;-42
2023/01/24 14:29:44;;;;;;;;;;;;;;;;;;5051571;28;1916;-41
2023/01/24 14:32:24;;;;;;;;;;;;;;;;;;5051271;28;1409;-43
2023/01/24 14:35:10;;;;;;;;;;;;;;;;;;5051390;28;1501;-43
2023/01/24 14:37:37;;;;;;;;;;;;;;;;;;5051445;28;1488;-42
2023/01/24 14:40:11;;;;;;;;;;;;;;;;;;5051605;28;1779;-41
2023/01/24 14:42:39;;;;;;;;;;;;;;;;;;5051763;28;1828;-43
2023/01/24 14:45:12;;;;;;;;;;;;;;;;;;5051578;28;2036;-43
2023/01/24 14:47:40;;;;;;;;;;;;;;;;;;5051504;28;1821;-43
2023/01/24 14:50:25;;;;;;;;;;;;;;;;;;5051497;28;1977;-42
2023/01/24 14:52:53;;;;;;;;;;;;;;;;;;5049894;28;2524;-43
2023/01/24 14:55:26;;;;;;;;;;;;;;;;;;5051238;28;1981;-42
2023/01/24 14:57:53;;;;;;;;;;;;;;;;;;5051095;28;2153;-43
2023/01/24 15:00:24;;;;;;;;;;;;;;;;;;5049738;28;2235;-45
2023/01/24 15:02:53;;;;;;;;;;;;;;;;;;5051300;28;2150;-43
2023/01/24 15:05:22;;;;;;;;;;;;;;;;;;5049559;28;1661;-43
2023/01/24 15:07:50;;;;;;;;;;;;;;;;;;5051172;28;1842;-41
2023/01/24 15:10:29;;;;;;;;;;;;;;;;;;5050991;28;2152;-41
2023/01/24 15:12:58;;;;;;;;;;;;;;;;;;5050006;28;1858;-42
2023/01/24 15:15:27;;;;;;;;;;;;;;;;;;5050769;28;2081;-44
2023/01/24 15:18:01;;;;;;;;;;;;;;;;;;5050857;28;1822;-43
2023/01/24 15:20:29;;;;;;;;;;;;;;;;;;5051120;28;1776;-43
2023/01/24 15:22:58;;;;;;;;;;;;;;;;;;5051017;28;1914;-42
2023/01/24 15:25:27;;;;;;;;;;;;;;;;;;5050819;28;1682;-41
2023/01/24 15:27:54;;;;;;;;;;;;;;;;;;5050803;28;1233;-44
2023/01/24 15:30:26;;;;;;;;;;;;;;;;;;5050605;28;1912;-43
2023/01/24 15:32:56;;;;;;;;;;;;;;;;;;5050716;28;2045;-43
2023/01/24 15:35:28;;;;;;;;;;;;;;;;;;5050913;28;1425;-43
2023/01/24 15:38:17;;;;;;;;;;;;;;;;;;5050599;28;1830;-41
2023/01/24 15:40:54;;;;;;;;;;;;;;;;;;5050709;28;2011;-43
2023/01/24 15:43:48;;;;;;;;;;;;;;;;;;5050753;28;1865;-42
2023/01/24 15:49:19;;;;;;;;;;;;;;;;;;5050455;28;1494;-45
2023/01/24 15:52:11;;;;;;;;;;;;;;;;;;5054371;28;1439;-44
2023/01/24 15:54:39;;;;;;;;;;;;;;;;;;5036666;28;2078;-46
2023/01/24 15:57:24;;;;;;;;;;;;;;;;;;5054395;28;1885;-41
2023/01/24 15:59:59;;;;;;;;;;;;;;;;;;5054304;28;1955;-42
2023/01/24 16:02:35;;;;;;;;;;;;;;;;;;5054352;28;1963;-42
2023/01/24 16:05:12;;;;;;;;;;;;;;;;;;5054389;28;2080;-43
2023/01/24 16:07:39;;;;;;;;;;;;;;;;;;5054305;28;2001;-43
2023/01/24 16:10:15;;;;;;;;;;;;;;;;;;5054150;28;1914;-43
2023/01/24 16:12:46;;;;;;;;;;;;;;;;;;5054349;28;2155;-42
2023/01/24 16:15:17;;;;;;;;;;;;;;;;;;5054336;28;1852;-43
2023/01/24 16:17:44;;;;;;;;;;;;;;;;;;5054232;28;1896;-44
2023/01/24 16:20:19;;;;;;;;;;;;;;;;;;5054100;28;1582;-43
2023/01/24 16:22:46;;;;;;;;;;;;;;;;;;5054076;28;2065;-47
2023/01/24 16:25:14;;;;;;;;;;;;;;;;;;5054122;28;1614;-42
2023/01/24 16:27:41;;;;;;;;;;;;;;;;;;5042102;28;1744;-41
2023/01/24 16:30:16;;;;;;;;;;;;;;;;;;5049461;28;2136;-43
2023/01/24 16:32:43;;;;;;;;;;;;;;;;;;5053873;28;1902;-43
2023/01/24 16:35:10;;;;;;;;;;;;;;;;;;5053630;28;1685;-42
2023/01/24 16:37:37;;;;;;;;;;;;;;;;;;5053914;28;1917;-41
2023/01/24 16:40:05;;;;;;;;;;;;;;;;;;5053633;28;1487;-43
2023/01/24 16:42:32;;;;;;;;;;;;;;;;;;5053591;28;1952;-43
2023/01/24 16:45:00;;;;;;;;;;;;;;;;;;5053743;28;1696;-43
2023/01/24 16:47:27;;;;;;;;;;;;;;;;;;5053528;28;2200;-42
2023/01/24 16:49:55;;;;;;;;;;;;;;;;;;5053543;28;1975;-43
2023/01/24 16:52:24;;;;;;;;;;;;;;;;;;5053497;28;1369;-43
2023/01/24 16:54:52;;;;;;;;;;;;;;;;;;5053354;28;1690;-42
2023/01/24 16:57:19;;;;;;;;;;;;;;;;;;5053665;28;1850;-43
2023/01/24 16:59:46;;;;;;;;;;;;;;;;;;5053418;28;1722;-41
2023/01/24 17:02:14;;;;;;;;;;;;;;;;;;5052785;28;2036;-43
2023/01/24 17:04:41;;;;;;;;;;;;;;;;;;5053318;28;1642;-43
2023/01/24 17:07:08;;;;;;;;;;;;;;;;;;5053196;28;2108;-42
2023/01/24 17:09:35;;;;;;;;;;;;;;;;;;5053102;28;1985;-42
2023/01/24 17:12:03;;;;;;;;;;;;;;;;;;5053128;28;1713;-41
2023/01/24 17:14:40;;;;;;;;;;;;;;;;;;5035110;28;1949;-43
2023/01/24 17:17:14;;;;;;;;;;;;;;;;;;5053043;28;1989;-43
2023/01/24 17:19:42;;;;;;;;;;;;;;;;;;5052766;28;1982;-41
2023/01/24 17:22:09;;;;;;;;;;;;;;;;;;5053054;28;1950;-43
2023/01/24 17:24:36;;;;;;;;;;;;;;;;;;5052739;28;1879;-44
2023/01/24 17:27:06;;;;;;;;;;;;;;;;;;5046313;28;1813;-44
2023/01/24 17:29:33;;;;;;;;;;;;;;;;;;5032802;28;1920;-42
2023/01/24 17:32:00;;;;;;;;;;;;;;;;;;5032566;28;1845;-42
2023/01/24 17:34:28;;;;;;;;;;;;;;;;;;5032759;28;2370;-41
2023/01/24 17:36:55;;;;;;;;;;;;;;;;;;5015202;28;2151;-42
2023/01/24 17:39:23;;;;;;;;;;;;;;;;;;5032724;28;2052;-41
2023/01/24 17:41:50;;;;;;;;;;;;;;;;;;5014853;28;2185;-44
2023/01/24 17:44:17;;;;;;;;;;;;;;;;;;5032572;28;1783;-42
2023/01/24 17:46:46;;;;;;;;;;;;;;;;;;5032677;28;1679;-45
2023/01/24 17:49:13;;;;;;;;;;;;;;;;;;5032528;28;1933;-43
2023/01/24 17:51:41;;;;;;;;;;;;;;;;;;5032401;28;1906;-43
2023/01/24 17:54:09;;;;;;;;;;;;;;;;;;5032265;28;1520;-43
2023/01/24 17:56:36;;;;;;;;;;;;;;;;;;5032216;28;1797;-43
2023/01/24 17:59:04;;;;;;;;;;;;;;;;;;5032291;28;1617;-43
2023/01/24 18:01:31;;;;;;;;;;;;;;;;;;5032266;28;1843;-43
2023/01/24 18:03:59;;;;;;;;;;;;;;;;;;5032089;28;1481;-43
2023/01/24 18:06:27;;;;;;;;;;;;;;;;;;5032143;28;1686;-41
2023/01/24 18:08:55;;;;;;;;;;;;;;;;;;5032021;28;1887;-42
2023/01/24 18:11:23;;;;;;;;;;;;;;;;;;5014913;28;1925;-43